Warren, MA

11:05 AM EDT on August 29, 2016 (GMT -0400)
Old Bemis Farm | | Change Station

Elev 823 ft 42.18 °N, 72.19 °W | Updated 14 minutes ago

Clear
Clear
82.4 °F
Feels Like 88 °F
N
0.0
Wind Variable Wind from West

Today
High -- | Low -- °F
--% Chance of Precip.
Yesterday
High -- | Low -- °F
Precip. -- in
Pressure 30.08 in
Visibility 10.0 miles
Clouds Clear
Heat Index 88 °F
Dew Point 72 °F
Humidity 72%
Rainfall 0.00 in
Snow Depth Not available.
6:11 AM 7:26 PM
Waning Crescent, 8% visible
METAR KORH 291454Z 29014G21KT 10SM CLR 24/18 A3009 RMK AO2 SLP186 T02440178 56007
Pressure 30.08 in
Visibility 10.0 miles
Clouds Clear
Heat Index 88 °F
Dew Point 72 °F
Humidity 72%
Rainfall 0.00 in
Snow Depth Not available.
6:11 AM 7:26 PM
Waning Crescent, 8% visible
METAR KORH 291454Z 29014G21KT 10SM CLR 24/18 A3009 RMK AO2 SLP186 T02440178 56007

10-Day Weather Forecast

Almanac

Astronomy

Aug. 29, 2016 Rise Set
Actual Time
Civil Twilight
Nautical Twilight
Astronomical Twilight
Moon
Length of Visible Light
Length of Day
Tomorrow will be .
, % of the Moon is Illuminated

Today's Extremes

State Highs State Lows

Community

WunderPhotos

Upload Photos

1,935,841 photos uploaded!

WunderBlog® & News

Nearby

Air Quality

  Air Quality AQ Index Pollutant
Not available.

Snow Depth

Station Depth Elevation

Earthquake Activity

City Distance Mag. Time & Date
Minimum magnitude displayed is 2.5.

Coastal Water Temperatures

Place Temperature

Stations

Nearby Weather Stations

Station Location Temp. Windchill Dew Point Humidity Wind Precip. Elev Updated Type
                   

Watches & Warnings

There are currently no watches in effect.